createdAt,value
2023-05-12T00:02:00.962Z,10.38
2023-05-12T00:04:27.834Z,10.32
2023-05-12T00:06:54.581Z,10.36
2023-05-12T00:09:21.246Z,10.39
2023-05-12T00:11:48.643Z,10.43
2023-05-12T00:14:15.858Z,10.35
2023-05-12T00:16:42.509Z,10.38
2023-05-12T00:19:12.144Z,10.35
2023-05-12T00:21:40.395Z,10.34
2023-05-12T00:24:07.248Z,10.35
2023-05-12T00:26:33.743Z,10.37
2023-05-12T00:29:01.753Z,10.32
2023-05-12T00:31:33.127Z,10.32
2023-05-12T00:34:02.225Z,10.31
2023-05-12T00:36:33.476Z,10.31
2023-05-12T00:39:00.159Z,10.35
2023-05-12T00:41:26.862Z,10.32
2023-05-12T00:43:53.351Z,10.32
2023-05-12T00:46:21.072Z,10.31
2023-05-12T00:48:48.419Z,10.29
2023-05-12T00:51:16.994Z,10.28
2023-05-12T00:53:49.756Z,10.26
2023-05-12T00:56:21.887Z,10.25
2023-05-12T00:58:48.389Z,10.25
2023-05-12T01:01:15.019Z,10.25
2023-05-12T01:03:52.082Z,10.26
2023-05-12T01:06:28.998Z,10.27
2023-05-12T01:08:58.112Z,10.26
2023-05-12T01:11:24.680Z,10.28
2023-05-12T01:13:51.242Z,10.30
2023-05-12T01:16:23.743Z,10.28
2023-05-12T01:18:53.804Z,10.24
2023-05-12T01:21:20.573Z,10.21
2023-05-12T01:23:54.551Z,10.19
2023-05-12T01:26:22.236Z,10.18
2023-05-12T01:28:50.388Z,10.16
2023-05-12T01:31:19.594Z,10.16
2023-05-12T01:33:47.621Z,10.15
2023-05-12T01:36:14.128Z,10.17
2023-05-12T01:38:40.575Z,10.18
2023-05-12T01:41:07.017Z,10.18
2023-05-12T01:43:33.554Z,10.16
2023-05-12T01:46:00.071Z,10.16
2023-05-12T01:48:26.515Z,10.18
2023-05-12T01:50:52.922Z,10.14
2023-05-12T01:53:19.302Z,10.26
2023-05-12T01:55:45.702Z,10.22
2023-05-12T01:58:12.128Z,10.20
2023-05-12T02:00:38.629Z,10.18
2023-05-12T02:03:05.176Z,10.20
2023-05-12T02:05:31.701Z,10.15
2023-05-12T02:07:58.126Z,10.16
2023-05-12T02:10:24.516Z,10.17
2023-05-12T02:12:50.938Z,10.18
2023-05-12T02:15:17.370Z,10.13
2023-05-12T02:17:43.969Z,10.09
2023-05-12T02:20:12.344Z,10.06
2023-05-12T02:22:38.906Z,10.05
2023-05-12T02:25:05.896Z,10.05
2023-05-12T02:27:32.599Z,10.05
2023-05-12T02:29:59.134Z,10.04
2023-05-12T02:32:28.182Z,10.04
2023-05-12T02:34:57.812Z,10.02
2023-05-12T02:37:24.354Z,10.04
2023-05-12T02:39:50.808Z,10.06
2023-05-12T02:42:17.356Z,10.07
2023-05-12T02:44:43.877Z,10.03
2023-05-12T02:47:10.332Z,10.10
2023-05-12T02:49:36.769Z,10.11
2023-05-12T02:52:03.464Z,10.13
2023-05-12T02:54:29.940Z,10.13
2023-05-12T02:56:58.206Z,10.16
2023-05-12T02:59:24.737Z,10.17
2023-05-12T03:01:51.227Z,10.14
2023-05-12T03:04:18.019Z,10.13
2023-05-12T03:06:49.263Z,10.15
2023-05-12T03:09:16.688Z,10.14
2023-05-12T03:11:43.185Z,10.13
2023-05-12T03:14:09.652Z,10.17
2023-05-12T03:16:38.641Z,10.26
2023-05-12T03:19:05.488Z,10.22
2023-05-12T03:21:34.325Z,10.27
2023-05-12T03:24:03.160Z,10.30
2023-05-12T03:26:32.981Z,10.31
2023-05-12T03:28:59.480Z,10.31
2023-05-12T03:31:26.348Z,10.30
2023-05-12T03:33:52.848Z,10.31
2023-05-12T03:36:19.493Z,10.31
2023-05-12T03:38:46.266Z,10.35
2023-05-12T03:41:12.892Z,10.31
2023-05-12T03:43:40.470Z,10.36
2023-05-12T03:46:33.711Z,10.44
2023-05-12T03:49:01.018Z,10.39
2023-05-12T03:51:31.042Z,10.42
2023-05-12T03:53:57.549Z,10.42
2023-05-12T03:56:24.491Z,10.43
2023-05-12T03:58:51.084Z,10.43
2023-05-12T04:01:17.579Z,10.43
2023-05-12T04:03:44.493Z,10.44
2023-05-12T04:06:12.555Z,10.51
2023-05-12T04:08:41.741Z,10.54
2023-05-12T04:11:09.441Z,10.60
2023-05-12T04:13:35.942Z,10.59
2023-05-12T04:16:02.434Z,10.57
2023-05-12T04:18:29.195Z,10.60
2023-05-12T04:20:56.161Z,10.60
2023-05-12T04:23:22.961Z,10.57
2023-05-12T04:25:49.456Z,10.66
2023-05-12T04:28:16.197Z,10.63
2023-05-12T04:30:43.002Z,10.62
2023-05-12T04:33:10.142Z,10.76
2023-05-12T04:35:36.777Z,10.71
2023-05-12T04:38:03.737Z,10.70
2023-05-12T04:40:35.070Z,10.72
2023-05-12T04:43:01.915Z,10.66
2023-05-12T04:45:28.463Z,10.72
2023-05-12T04:47:54.994Z,10.72
2023-05-12T04:50:21.557Z,10.72
2023-05-12T04:52:48.022Z,10.80
2023-05-12T04:55:14.469Z,10.83
2023-05-12T04:57:41.543Z,10.90
2023-05-12T05:00:09.162Z,10.90
2023-05-12T05:02:35.984Z,10.86
2023-05-12T05:05:02.574Z,10.88
2023-05-12T05:07:29.125Z,10.91
2023-05-12T05:09:55.540Z,10.97
2023-05-12T05:12:21.963Z,10.99
2023-05-12T05:14:48.425Z,10.96
2023-05-12T05:17:14.986Z,11.03
2023-05-12T05:19:55.112Z,11.00
2023-05-12T05:22:25.415Z,11.05
2023-05-12T05:24:52.120Z,11.11
2023-05-12T05:27:19.044Z,11.03
2023-05-12T05:29:45.700Z,11.12
2023-05-12T05:32:12.426Z,11.10
2023-05-12T05:34:38.891Z,11.15
2023-05-12T05:37:05.701Z,11.22
2023-05-12T05:39:32.241Z,11.33
2023-05-12T05:41:58.755Z,11.40
2023-05-12T05:44:25.534Z,11.40
2023-05-12T05:46:52.120Z,11.36
2023-05-12T05:49:18.726Z,11.50
2023-05-12T05:51:45.134Z,11.53
2023-05-12T05:54:12.126Z,11.57
2023-05-12T05:56:38.652Z,11.55
2023-05-12T05:59:05.462Z,11.52
2023-05-12T06:01:32.473Z,11.59
2023-05-12T06:03:59.314Z,11.62
2023-05-12T06:06:26.023Z,11.67
2023-05-12T06:08:52.525Z,11.67
2023-05-12T06:11:18.953Z,11.76
2023-05-12T06:13:45.372Z,11.83
2023-05-12T06:16:11.852Z,11.81
2023-05-12T06:18:38.644Z,11.83
2023-05-12T06:21:06.236Z,11.88
2023-05-12T06:23:33.282Z,11.87
2023-05-12T06:25:59.756Z,11.91
2023-05-12T06:28:26.179Z,11.90
2023-05-12T06:30:52.637Z,11.87
2023-05-12T06:33:19.082Z,11.80
2023-05-12T06:35:45.715Z,11.86
2023-05-12T06:38:12.217Z,12.08
2023-05-12T06:40:38.646Z,12.12
2023-05-12T06:43:05.185Z,12.11
2023-05-12T06:45:31.606Z,12.12
2023-05-12T06:47:58.353Z,12.16
2023-05-12T06:50:24.799Z,12.16
2023-05-12T06:52:51.280Z,12.12
2023-05-12T06:55:20.645Z,12.21
2023-05-12T06:57:47.753Z,12.31
2023-05-12T07:00:14.622Z,12.21
2023-05-12T07:02:41.286Z,12.32
2023-05-12T07:05:08.237Z,12.36
2023-05-12T07:07:35.959Z,12.45
2023-05-12T07:10:02.457Z,12.50
2023-05-12T07:12:28.984Z,12.58
2023-05-12T07:14:55.806Z,12.63
2023-05-12T07:17:22.301Z,12.57
2023-05-12T07:19:48.872Z,12.59
2023-05-12T07:22:15.362Z,12.64
2023-05-12T07:24:41.835Z,12.56
2023-05-12T07:27:08.302Z,12.65
2023-05-12T07:29:34.897Z,12.74
2023-05-12T07:32:01.402Z,12.85
2023-05-12T07:34:27.884Z,12.73
2023-05-12T07:36:54.462Z,12.80
2023-05-12T07:39:23.728Z,12.88
2023-05-12T07:41:52.837Z,12.83
2023-05-12T07:44:19.477Z,12.75
2023-05-12T07:46:46.066Z,12.89
2023-05-12T07:49:12.727Z,12.69
2023-05-12T07:51:39.433Z,12.74
2023-05-12T07:54:07.150Z,12.69
2023-05-12T07:56:33.965Z,12.71
2023-05-12T07:59:00.973Z,12.84
2023-05-12T08:01:27.455Z,12.81
2023-05-12T08:03:54.072Z,12.80
2023-05-12T08:06:20.589Z,12.88
2023-05-12T08:08:47.041Z,12.99
2023-05-12T08:11:13.515Z,12.97
2023-05-12T08:13:39.931Z,13.01
2023-05-12T08:16:07.086Z,13.11
2023-05-12T08:18:33.617Z,13.07
2023-05-12T08:21:00.105Z,13.17
2023-05-12T08:23:26.546Z,13.24
2023-05-12T08:25:53.015Z,13.26
2023-05-12T08:28:19.444Z,13.13
2023-05-12T08:30:46.936Z,13.08
2023-05-12T08:33:13.897Z,13.08
2023-05-12T08:35:40.470Z,13.07
2023-05-12T08:38:07.170Z,13.09
2023-05-12T08:40:41.685Z,13.20
2023-05-12T08:43:18.904Z,13.26
2023-05-12T08:45:46.817Z,13.22
2023-05-12T08:48:17.365Z,13.15
2023-05-12T08:50:47.200Z,13.45
2023-05-12T08:53:16.201Z,13.44
2023-05-12T08:55:53.339Z,13.44
2023-05-12T08:58:37.865Z,13.44
2023-05-12T09:01:07.391Z,13.68
2023-05-12T09:03:39.323Z,13.73
2023-05-12T09:06:06.803Z,13.94
2023-05-12T09:08:34.984Z,13.94
2023-05-12T09:11:01.980Z,13.99
2023-05-12T09:13:40.927Z,13.92
2023-05-12T09:16:18.419Z,13.95
2023-05-12T09:18:52.250Z,13.78
2023-05-12T09:21:19.807Z,13.78
2023-05-12T09:24:00.656Z,13.65
2023-05-12T09:26:28.293Z,13.91
2023-05-12T09:29:04.450Z,14.08
2023-05-12T09:31:30.869Z,14.22
2023-05-12T09:33:58.464Z,13.97
2023-05-12T09:36:25.665Z,14.41
2023-05-12T09:39:09.465Z,14.42
2023-05-12T09:41:43.129Z,14.41
2023-05-12T09:44:10.917Z,14.31
2023-05-12T09:46:39.766Z,14.38
2023-05-12T09:49:06.214Z,14.42
2023-05-12T09:51:32.653Z,14.51
2023-05-12T09:53:59.540Z,14.43
2023-05-12T09:56:29.013Z,14.59
2023-05-12T09:59:00.034Z,14.53
2023-05-12T10:01:29.488Z,14.59
2023-05-12T10:03:58.230Z,14.72
2023-05-12T10:06:31.357Z,14.44
2023-05-12T10:09:22.135Z,14.62
2023-05-12T10:11:58.378Z,14.80
2023-05-12T10:14:25.940Z,14.76
2023-05-12T10:16:53.135Z,14.80
2023-05-12T10:19:20.694Z,14.79
2023-05-12T10:21:47.986Z,14.93
2023-05-12T10:24:17.897Z,14.67
2023-05-12T10:26:45.055Z,14.93
2023-05-12T10:29:12.782Z,14.81
2023-05-12T10:31:40.056Z,14.91
2023-05-12T10:34:06.900Z,14.83
2023-05-12T10:36:45.821Z,14.77
2023-05-12T10:39:14.736Z,14.90
2023-05-12T10:41:42.488Z,14.91
2023-05-12T10:44:10.547Z,15.07
2023-05-12T10:46:37.480Z,14.94
2023-05-12T10:49:06.934Z,14.72
2023-05-12T10:51:43.188Z,14.93
2023-05-12T10:54:11.366Z,15.15
2023-05-12T10:56:38.640Z,15.27
2023-05-12T10:59:27.579Z,15.20
2023-05-12T11:02:03.923Z,15.23
2023-05-12T11:04:41.639Z,15.46
2023-05-12T11:07:12.139Z,15.54
2023-05-12T11:09:56.977Z,15.65
2023-05-12T11:12:27.258Z,15.63
2023-05-12T11:14:53.921Z,15.68
2023-05-12T11:17:20.598Z,15.55
2023-05-12T11:19:49.640Z,15.50
2023-05-12T11:22:21.694Z,15.59
2023-05-12T11:24:53.342Z,15.58
2023-05-12T11:27:23.126Z,15.56
2023-05-12T11:30:01.832Z,15.70
2023-05-12T11:32:29.510Z,15.48
2023-05-12T11:34:56.397Z,15.74
2023-05-12T11:37:23.339Z,15.69
2023-05-12T11:39:50.045Z,15.58
2023-05-12T11:42:19.671Z,15.81
2023-05-12T11:44:48.657Z,15.91
2023-05-12T11:47:16.180Z,16.07
2023-05-12T11:49:51.372Z,16.14
2023-05-12T11:52:23.443Z,15.72
2023-05-12T11:54:57.348Z,16.05
2023-05-12T11:57:29.032Z,15.91
2023-05-12T12:00:00.299Z,15.83
2023-05-12T12:02:27.943Z,15.74
2023-05-12T12:04:54.566Z,15.84
2023-05-12T12:07:37.229Z,15.91
2023-05-12T12:10:19.159Z,15.85
2023-05-12T12:12:48.542Z,15.90
2023-05-12T12:15:21.451Z,15.64
2023-05-12T12:17:48.079Z,15.94
2023-05-12T12:20:14.683Z,15.74
2023-05-12T12:22:41.266Z,15.78
2023-05-12T12:25:08.224Z,16.00
2023-05-12T12:27:40.161Z,15.92
2023-05-12T12:30:07.233Z,16.01
2023-05-12T12:32:33.848Z,16.08
2023-05-12T12:35:02.956Z,16.03
2023-05-12T12:37:29.477Z,16.00
2023-05-12T12:39:56.052Z,16.01
2023-05-12T12:42:22.564Z,15.76
2023-05-12T12:44:50.285Z,15.99
2023-05-12T12:47:17.973Z,15.85
2023-05-12T12:49:45.039Z,16.09
2023-05-12T12:52:11.574Z,16.05
2023-05-12T12:54:38.013Z,15.80
2023-05-12T12:57:04.770Z,15.84
2023-05-12T12:59:33.963Z,15.68
2023-05-12T13:02:01.392Z,16.01
2023-05-12T13:04:28.020Z,15.91
2023-05-12T13:06:54.514Z,15.94
2023-05-12T13:09:20.950Z,15.95
2023-05-12T13:11:48.097Z,15.95
2023-05-12T13:14:14.817Z,16.12
2023-05-12T13:16:41.763Z,16.21
2023-05-12T13:19:08.349Z,16.03
2023-05-12T13:21:35.071Z,15.85
2023-05-12T13:24:03.704Z,15.70
2023-05-12T13:26:30.146Z,15.65
2023-05-12T13:28:56.555Z,15.56
2023-05-12T13:31:23.286Z,15.31
2023-05-12T13:33:49.899Z,15.29
2023-05-12T13:36:16.449Z,15.50
2023-05-12T13:38:42.957Z,15.44
2023-05-12T13:41:09.595Z,15.56
2023-05-12T13:43:36.045Z,15.54
2023-05-12T13:46:02.635Z,15.32
2023-05-12T13:48:29.211Z,15.28
2023-05-12T13:50:55.767Z,15.14
2023-05-12T13:53:22.316Z,14.82
2023-05-12T13:55:48.739Z,14.84
2023-05-12T13:58:15.266Z,14.78
2023-05-12T14:00:43.824Z,14.50
2023-05-12T14:03:15.770Z,14.51
2023-05-12T14:05:42.275Z,14.60
2023-05-12T14:08:09.009Z,14.64
2023-05-12T14:10:35.543Z,14.62
2023-05-12T14:13:02.022Z,14.60
2023-05-12T14:15:47.212Z,14.61
2023-05-12T14:18:15.949Z,14.52
2023-05-12T14:20:42.509Z,14.39
2023-05-12T14:23:09.034Z,14.31
2023-05-12T14:25:36.632Z,14.38
2023-05-12T14:28:03.653Z,14.46
2023-05-12T14:30:30.398Z,14.52
2023-05-12T14:32:57.266Z,14.64
2023-05-12T14:35:27.563Z,14.63
2023-05-12T14:37:55.071Z,14.78
2023-05-12T14:40:21.489Z,14.93
2023-05-12T14:42:48.048Z,14.99
2023-05-12T14:45:14.765Z,15.14
2023-05-12T14:47:41.619Z,15.15
2023-05-12T14:50:08.567Z,15.26
2023-05-12T14:52:38.364Z,15.36
2023-05-12T14:55:11.788Z,15.42
2023-05-12T14:57:41.349Z,15.17
2023-05-12T15:00:10.868Z,15.17
2023-05-12T15:02:37.771Z,15.21
2023-05-12T15:05:08.163Z,15.30
2023-05-12T15:07:34.954Z,15.16
2023-05-12T15:10:01.624Z,15.14
2023-05-12T15:12:28.265Z,15.31
2023-05-12T15:14:56.387Z,15.34
2023-05-12T15:17:23.252Z,15.48
2023-05-12T15:19:49.683Z,15.59
2023-05-12T15:22:16.145Z,15.47
2023-05-12T15:24:43.087Z,15.45
2023-05-12T15:27:09.664Z,15.66
2023-05-12T15:29:40.693Z,15.40
2023-05-12T15:32:07.767Z,15.59
2023-05-12T15:34:37.426Z,15.42
2023-05-12T15:37:04.046Z,15.57
2023-05-12T15:39:30.480Z,15.52
2023-05-12T15:41:56.963Z,15.63
2023-05-12T15:44:23.498Z,15.48
2023-05-12T15:46:50.218Z,15.60
2023-05-12T15:49:16.819Z,15.56
2023-05-12T15:51:43.257Z,15.44
2023-05-12T15:54:09.884Z,15.54
2023-05-12T15:56:37.296Z,15.71
2023-05-12T15:59:05.210Z,15.45
2023-05-12T16:01:32.500Z,15.38
2023-05-12T16:03:59.653Z,15.63
2023-05-12T16:06:26.354Z,15.62
2023-05-12T16:08:53.338Z,15.42
2023-05-12T16:11:22.545Z,15.62
2023-05-12T16:13:51.602Z,15.63
2023-05-12T16:16:18.196Z,15.41
2023-05-12T16:18:44.769Z,15.60
2023-05-12T16:21:12.676Z,15.53
2023-05-12T16:23:39.344Z,15.64
2023-05-12T16:26:05.997Z,15.54
2023-05-12T16:28:34.486Z,15.65
2023-05-12T16:31:01.943Z,15.63
2023-05-12T16:33:28.420Z,15.49
2023-05-12T16:35:54.844Z,15.46
2023-05-12T16:38:21.327Z,15.61
2023-05-12T16:40:48.029Z,15.60
2023-05-12T16:43:14.460Z,15.61
2023-05-12T16:45:40.945Z,15.55
2023-05-12T16:48:07.355Z,15.71
2023-05-12T16:50:33.792Z,15.63
2023-05-12T16:53:00.612Z,15.57
2023-05-12T16:55:27.140Z,15.68
2023-05-12T16:57:53.561Z,15.71
2023-05-12T17:00:20.168Z,15.58
2023-05-12T17:02:46.805Z,15.51
2023-05-12T17:05:13.267Z,15.43
2023-05-12T17:07:39.781Z,15.48
2023-05-12T17:10:06.695Z,15.40
2023-05-12T17:12:36.927Z,15.26
2023-05-12T17:15:08.175Z,15.23
2023-05-12T17:17:48.790Z,15.38
2023-05-12T17:20:15.246Z,15.13
2023-05-12T17:22:44.437Z,14.92
2023-05-12T17:25:10.906Z,14.95
2023-05-12T17:27:37.295Z,15.01
2023-05-12T17:30:04.513Z,15.06
2023-05-12T17:32:31.561Z,14.95
2023-05-12T17:34:58.035Z,14.92
2023-05-12T17:37:24.724Z,14.81
2023-05-12T17:39:51.805Z,14.80
2023-05-12T17:42:18.546Z,14.68
2023-05-12T17:44:45.280Z,14.65
2023-05-12T17:47:14.582Z,14.53
2023-05-12T17:49:41.636Z,14.46
2023-05-12T17:52:08.425Z,14.44
2023-05-12T17:54:34.989Z,14.42
2023-05-12T17:57:02.027Z,14.39
2023-05-12T17:59:28.595Z,14.39
2023-05-12T18:01:55.081Z,14.37
2023-05-12T18:04:22.987Z,14.26
2023-05-12T18:06:50.306Z,14.18
2023-05-12T18:09:17.751Z,14.20
2023-05-12T18:11:47.541Z,14.13
2023-05-12T18:14:13.991Z,14.05
2023-05-12T18:16:40.658Z,14.05
2023-05-12T18:19:07.390Z,13.99
2023-05-12T18:21:33.945Z,13.93
2023-05-12T18:24:00.882Z,13.83
2023-05-12T18:26:28.000Z,13.79
2023-05-12T18:28:54.755Z,13.77
2023-05-12T18:31:21.273Z,13.55
2023-05-12T18:33:49.565Z,13.48
2023-05-12T18:36:16.540Z,13.44
2023-05-12T18:38:43.515Z,13.25
2023-05-12T18:41:10.947Z,13.15
2023-05-12T18:43:37.858Z,13.05
2023-05-12T18:46:04.644Z,12.92
2023-05-12T18:48:31.261Z,12.87
2023-05-12T18:50:57.939Z,12.81
2023-05-12T18:53:24.778Z,12.90
2023-05-12T18:55:51.586Z,12.81
2023-05-12T18:58:18.037Z,12.79
2023-05-12T19:00:45.034Z,12.77
2023-05-12T19:03:11.645Z,12.71
2023-05-12T19:05:42.061Z,12.74
2023-05-12T19:08:08.528Z,12.75
2023-05-12T19:10:36.633Z,12.73
2023-05-12T19:13:04.647Z,12.70
2023-05-12T19:15:31.098Z,12.65
2023-05-12T19:17:57.558Z,12.56
2023-05-12T19:20:24.464Z,12.55
2023-05-12T19:22:51.052Z,12.49
2023-05-12T19:25:17.841Z,12.47
2023-05-12T19:27:45.831Z,12.42
2023-05-12T19:30:13.956Z,12.42
2023-05-12T19:32:42.392Z,12.37
2023-05-12T19:35:12.451Z,12.31
2023-05-12T19:37:39.024Z,12.25
2023-05-12T19:40:06.311Z,12.11
2023-05-12T19:42:32.775Z,11.92
2023-05-12T19:45:00.521Z,11.75
2023-05-12T19:47:27.055Z,11.58
2023-05-12T19:49:53.953Z,11.36
2023-05-12T19:52:21.420Z,11.20
2023-05-12T19:54:47.865Z,11.09
2023-05-12T19:57:14.246Z,10.96
2023-05-12T19:59:40.645Z,10.77
2023-05-12T20:02:11.047Z,10.86
2023-05-12T20:04:37.548Z,10.80
2023-05-12T20:07:04.125Z,10.87
2023-05-12T20:09:30.700Z,10.95
2023-05-12T20:11:57.144Z,11.05
2023-05-12T20:14:23.570Z,11.21
2023-05-12T20:16:51.066Z,11.24
2023-05-12T20:19:18.062Z,11.26
2023-05-12T20:21:44.464Z,11.24
2023-05-12T20:24:10.901Z,11.22
2023-05-12T20:26:37.789Z,11.18
2023-05-12T20:29:04.333Z,11.23
2023-05-12T20:31:31.115Z,11.24
2023-05-12T20:33:57.808Z,11.26
2023-05-12T20:36:24.214Z,11.29
2023-05-12T20:38:50.616Z,11.29
2023-05-12T20:41:17.039Z,11.32
2023-05-12T20:43:45.776Z,11.37
2023-05-12T20:46:12.537Z,11.37
2023-05-12T20:48:39.484Z,11.33
2023-05-12T20:51:12.684Z,11.37
2023-05-12T20:53:39.260Z,11.35
2023-05-12T20:56:08.358Z,11.35
2023-05-12T20:58:35.106Z,11.31
2023-05-12T21:01:01.871Z,11.33
2023-05-12T21:03:28.362Z,11.28
2023-05-12T21:05:54.817Z,11.25
2023-05-12T21:08:21.253Z,11.24
2023-05-12T21:10:48.556Z,11.18
2023-05-12T21:13:15.298Z,11.16
2023-05-12T21:15:41.879Z,11.12
2023-05-12T21:18:09.005Z,11.14
2023-05-12T21:20:35.712Z,11.11
2023-05-12T21:23:02.410Z,11.17
2023-05-12T21:25:28.937Z,11.08
2023-05-12T21:27:55.461Z,11.08
2023-05-12T21:30:22.041Z,11.05
2023-05-12T21:32:48.688Z,11.04
2023-05-12T21:35:15.181Z,11.06
2023-05-12T21:37:41.645Z,11.06
2023-05-12T21:40:08.764Z,11.01
2023-05-12T21:42:35.413Z,10.97
2023-05-12T21:45:02.012Z,10.93
2023-05-12T21:47:28.453Z,10.89
2023-05-12T21:49:55.482Z,10.80
2023-05-12T21:52:22.637Z,10.70
2023-05-12T21:54:49.258Z,10.53
2023-05-12T21:57:15.748Z,10.42
2023-05-12T21:59:42.184Z,10.16
2023-05-12T22:02:08.722Z,10.06
2023-05-12T22:04:35.184Z,9.87
2023-05-12T22:07:01.849Z,9.77
2023-05-12T22:09:30.384Z,9.63
2023-05-12T22:11:57.878Z,9.52
2023-05-12T22:14:24.492Z,9.34
2023-05-12T22:16:51.023Z,9.27
2023-05-12T22:19:17.578Z,9.13
2023-05-12T22:21:55.795Z,9.00
2023-05-12T22:24:25.122Z,9.00
2023-05-12T22:26:51.898Z,8.88
2023-05-12T22:29:21.930Z,8.81
2023-05-12T22:31:48.779Z,8.71
2023-05-12T22:34:15.770Z,8.70
2023-05-12T22:36:42.432Z,8.74
2023-05-12T22:39:09.320Z,8.66
2023-05-12T22:41:36.567Z,8.61
2023-05-12T22:44:16.866Z,8.57
2023-05-12T22:46:43.608Z,8.58
2023-05-12T23:06:15.313Z,8.28
2023-05-12T23:08:51.841Z,8.19
2023-05-12T23:11:53.906Z,8.11
2023-05-12T23:14:33.333Z,8.07
2023-05-12T23:17:10.686Z,8.01
2023-05-12T23:19:41.094Z,7.98
2023-05-12T23:22:19.347Z,7.96
2023-05-12T23:28:05.679Z,7.98
2023-05-12T23:31:03.594Z,7.96
2023-05-12T23:33:46.783Z,7.92
2023-05-12T23:36:59.033Z,7.89
2023-05-12T23:39:25.733Z,7.89
2023-05-12T23:41:52.188Z,7.89
2023-05-12T23:44:18.783Z,7.87
2023-05-12T23:46:48.408Z,7.84
2023-05-12T23:49:20.145Z,7.88
2023-05-12T23:51:46.706Z,7.92
2023-05-12T23:54:23.918Z,7.93
2023-05-12T23:59:52.868Z,7.80
